Metar/TAF

[source: ADDS]
METAR
KSNA 201653Z VRB04KT 10SM SCT027 16/09 A3013 RMK AO2 SLP202 T01610089 =
TAF
KSNA 201726Z 2018/2118 VRB04KT P6SM SCT025 FM202000 22009KT P6SM SKC FM210300 VRB04KT P6SM SKC FM210900 VRB04KT P6SM BKN010 FM211400 VRB04KT P6SM SCT010 =
SR / SS: 13:13 / 02:26 UTC ( 2018-04-20)

Sectional

Sectional Chart - Southern California

Airport Diagram

airport diagram - John Wayne Airport, Orange County

IFR Chart

IFR Chart - Southern California